Terminal Aerodrome Forecast
Issued by NWS

Home | Current Version | Previous Version | Text Only | Print | Product List | Glossary On
Versions: 1 2 3 4 5 6 7 8 9 10 11 12 13
000
FTUS46 KOTX 311739
TAFPUW
TAF
KPUW 311739Z 3118/0118 VRB04KT P6SM FEW050 SCT250
     FM010800 10005KT P6SM FEW150 BKN250
     FM011700 13009KT P6SM SCT150 BKN200=

USA.gov is the U.S. government's official web portal to all federal, state and local government web resources and services.